createdAt,value
2019-04-29T00:01:21.117Z,70.54
2019-04-29T00:03:47.927Z,70.83
2019-04-29T00:06:14.523Z,70.80
2019-04-29T00:08:41.303Z,71.05
2019-04-29T00:11:08.231Z,70.93
2019-04-29T00:13:35.096Z,71.13
2019-04-29T00:16:29.518Z,71.20
2019-04-29T00:19:19.016Z,71.81
2019-04-29T00:21:45.887Z,71.89
2019-04-29T00:24:12.524Z,71.83
2019-04-29T00:26:39.162Z,71.54
2019-04-29T00:29:05.804Z,71.93
2019-04-29T00:31:32.435Z,71.96
2019-04-29T00:33:59.255Z,72.30
2019-04-29T00:36:29.368Z,72.45
2019-04-29T00:39:14.397Z,72.25
2019-04-29T00:42:02.076Z,72.14
2019-04-29T00:44:31.754Z,71.63
2019-04-29T00:46:58.833Z,72.52
2019-04-29T00:49:25.729Z,72.37
2019-04-29T00:51:52.367Z,72.52
2019-04-29T00:54:28.963Z,73.11
2019-04-29T00:56:56.088Z,72.78
2019-04-29T00:59:22.645Z,72.92
2019-04-29T01:01:49.389Z,73.01
2019-04-29T01:04:16.269Z,72.50
2019-04-29T01:06:42.905Z,72.58
2019-04-29T01:09:13.319Z,72.91
2019-04-29T01:11:40.013Z,72.71
2019-04-29T01:14:06.661Z,72.73
2019-04-29T01:16:33.333Z,73.24
2019-04-29T01:19:00.253Z,73.03
2019-04-29T01:21:26.796Z,73.19
2019-04-29T01:23:53.481Z,73.29
2019-04-29T01:26:38.401Z,73.55
2019-04-29T01:29:06.105Z,73.37
2019-04-29T01:31:32.844Z,73.78
2019-04-29T01:34:06.004Z,73.82
2019-04-29T01:36:36.441Z,74.01
2019-04-29T01:39:05.700Z,73.93
2019-04-29T01:41:38.435Z,73.18
2019-04-29T01:44:06.326Z,73.80
2019-04-29T01:46:33.098Z,73.39
2019-04-29T01:48:59.850Z,73.48
2019-04-29T01:51:26.588Z,73.44
2019-04-29T01:53:53.423Z,73.27
2019-04-29T01:56:20.132Z,73.89
2019-04-29T01:58:46.883Z,73.13
2019-04-29T02:01:13.467Z,73.66
2019-04-29T02:03:40.111Z,73.68
2019-04-29T02:06:07.070Z,73.02
2019-04-29T02:08:33.708Z,73.32
2019-04-29T02:11:00.892Z,73.15
2019-04-29T02:13:27.440Z,73.65
2019-04-29T02:15:54.112Z,73.71
2019-04-29T02:18:20.648Z,73.74
2019-04-29T02:20:47.383Z,73.96
2019-04-29T02:23:32.523Z,74.15
2019-04-29T02:25:59.214Z,74.11
2019-04-29T02:28:25.960Z,74.00
2019-04-29T02:30:52.904Z,73.89
2019-04-29T02:33:19.679Z,73.91
2019-04-29T02:35:46.525Z,73.75
2019-04-29T02:38:27.081Z,74.08
2019-04-29T02:41:02.816Z,74.21
2019-04-29T02:43:31.079Z,74.27
2019-04-29T02:45:57.876Z,74.28
2019-04-29T02:48:29.111Z,74.47
2019-04-29T02:50:53.130Z,74.58
2019-04-29T02:53:20.010Z,74.27
2019-04-29T02:55:50.351Z,74.46
2019-04-29T02:58:54.896Z,74.57
2019-04-29T03:01:46.841Z,74.46
2019-04-29T03:04:25.106Z,74.44
2019-04-29T03:06:51.817Z,74.33
2019-04-29T03:09:18.615Z,74.69
2019-04-29T03:11:45.567Z,74.46
2019-04-29T03:14:12.215Z,74.24
2019-04-29T03:16:39.100Z,74.43
2019-04-29T03:19:11.112Z,74.56
2019-04-29T03:21:43.846Z,74.55
2019-04-29T03:24:10.662Z,74.50
2019-04-29T03:26:37.309Z,74.34
2019-04-29T03:29:06.926Z,74.55
2019-04-29T03:31:39.211Z,74.63
2019-04-29T03:34:02.381Z,74.45
2019-04-29T03:36:29.119Z,74.60
2019-04-29T03:38:55.840Z,74.46
2019-04-29T03:41:22.603Z,74.53
2019-04-29T03:43:49.262Z,74.66
2019-04-29T03:46:16.612Z,74.58
2019-04-29T03:48:43.263Z,74.87
2019-04-29T03:51:09.808Z,74.72
2019-04-29T03:53:36.463Z,74.53
2019-04-29T03:56:03.103Z,74.85
2019-04-29T03:58:30.238Z,74.92
2019-04-29T04:01:04.853Z,74.96
2019-04-29T04:03:35.054Z,75.24
2019-04-29T04:06:27.597Z,75.37
2019-04-29T04:09:06.247Z,74.96
2019-04-29T04:11:26.899Z,74.88
2019-04-29T04:13:53.643Z,75.21
2019-04-29T04:16:39.955Z,75.10
2019-04-29T04:19:08.437Z,75.07
2019-04-29T04:21:37.881Z,75.29
2019-04-29T04:24:04.546Z,75.26
2019-04-29T04:26:31.285Z,75.20
2019-04-29T04:28:58.076Z,75.47
2019-04-29T04:31:24.728Z,75.33
2019-04-29T04:33:51.544Z,75.45
2019-04-29T04:36:18.096Z,75.29
2019-04-29T04:38:45.083Z,75.30
2019-04-29T04:41:11.734Z,75.36
2019-04-29T04:43:38.398Z,75.37
2019-04-29T04:46:05.222Z,73.96
2019-04-29T04:48:32.063Z,75.05
2019-04-29T04:50:59.049Z,75.11
2019-04-29T04:53:25.699Z,75.31
2019-04-29T04:55:54.469Z,75.41
2019-04-29T04:58:21.212Z,75.25
2019-04-29T05:00:47.856Z,75.06
2019-04-29T05:03:14.508Z,74.95
2019-04-29T05:05:42.774Z,74.79
2019-04-29T05:08:09.722Z,75.10
2019-04-29T05:10:36.560Z,74.98
2019-04-29T05:13:03.475Z,75.16
2019-04-29T05:15:30.022Z,74.98
2019-04-29T05:17:58.647Z,75.56
2019-04-29T05:20:25.418Z,75.68
2019-04-29T05:23:01.030Z,75.20
2019-04-29T05:25:29.422Z,75.12
2019-04-29T05:27:56.271Z,75.24
2019-04-29T05:30:23.348Z,75.22
2019-04-29T05:32:49.929Z,75.27
2019-04-29T05:35:20.832Z,75.23
2019-04-29T05:37:56.520Z,75.15
2019-04-29T05:41:01.195Z,75.04
2019-04-29T05:43:35.831Z,75.12
2019-04-29T05:46:08.873Z,74.82
2019-04-29T05:48:35.771Z,74.47
2019-04-29T05:51:27.306Z,74.75
2019-04-29T05:53:56.123Z,74.84
2019-04-29T05:56:23.035Z,74.24
2019-04-29T05:58:49.770Z,74.56
2019-04-29T06:01:20.594Z,74.43
2019-04-29T06:03:47.551Z,74.16
2019-04-29T06:06:14.408Z,74.49
2019-04-29T06:08:41.156Z,74.30
2019-04-29T06:11:09.015Z,74.52
2019-04-29T06:13:35.825Z,74.45
2019-04-29T06:16:02.894Z,74.84
2019-04-29T06:18:29.631Z,74.80
2019-04-29T06:21:08.248Z,74.76
2019-04-29T06:23:24.882Z,74.28
2019-04-29T06:25:51.916Z,74.56
2019-04-29T06:28:21.650Z,74.81
2019-04-29T06:30:50.091Z,74.68
2019-04-29T06:33:15.706Z,74.81
2019-04-29T06:35:43.269Z,74.37
2019-04-29T06:38:10.882Z,74.71
2019-04-29T06:40:37.664Z,74.32
2019-04-29T06:43:04.454Z,74.39
2019-04-29T06:45:31.163Z,74.65
2019-04-29T06:47:58.215Z,75.09
2019-04-29T06:50:25.115Z,77.82
2019-04-29T06:52:51.861Z,81.29
2019-04-29T06:55:18.529Z,84.87
2019-04-29T06:57:45.347Z,85.36
2019-04-29T07:00:12.246Z,86.54
2019-04-29T07:02:39.019Z,85.99
2019-04-29T07:05:06.020Z,85.65
2019-04-29T07:07:32.721Z,86.47
2019-04-29T07:09:59.367Z,86.85
2019-04-29T07:12:25.921Z,86.89
2019-04-29T07:14:52.731Z,87.08
2019-04-29T07:17:19.582Z,86.89
2019-04-29T07:19:46.289Z,87.01
2019-04-29T07:22:13.078Z,87.10
2019-04-29T07:24:39.659Z,87.14
2019-04-29T07:27:06.383Z,87.44
2019-04-29T07:29:33.541Z,87.75
2019-04-29T07:32:04.744Z,88.12
2019-04-29T07:34:33.891Z,88.62
2019-04-29T07:36:59.441Z,88.35
2019-04-29T07:39:31.111Z,88.48
2019-04-29T07:41:55.097Z,88.53
2019-04-29T07:44:22.929Z,88.33
2019-04-29T07:46:59.147Z,88.20
2019-04-29T07:49:21.807Z,88.34
2019-04-29T07:51:48.635Z,88.27
2019-04-29T07:54:16.342Z,88.43
2019-04-29T07:56:44.063Z,88.50
2019-04-29T07:59:11.295Z,88.38
2019-04-29T08:01:38.214Z,88.07
2019-04-29T08:04:09.033Z,88.23
2019-04-29T08:06:38.332Z,88.26
2019-04-29T08:09:07.959Z,88.37
2019-04-29T08:11:35.441Z,87.67
2019-04-29T08:14:02.377Z,87.21
2019-04-29T08:16:30.531Z,87.72
2019-04-29T08:18:57.214Z,87.80
2019-04-29T08:21:23.913Z,87.85
2019-04-29T08:23:50.719Z,87.88
2019-04-29T08:26:17.490Z,87.71
2019-04-29T08:28:44.658Z,87.50
2019-04-29T08:31:11.810Z,86.21
2019-04-29T08:33:38.555Z,86.40
2019-04-29T08:36:05.355Z,86.47
2019-04-29T08:38:32.029Z,85.47
2019-04-29T08:40:58.850Z,83.04
2019-04-29T08:44:15.203Z,83.43
2019-04-29T08:46:33.070Z,83.23
2019-04-29T08:49:01.062Z,81.37
2019-04-29T08:51:28.611Z,81.59
2019-04-29T08:53:55.209Z,81.01
2019-04-29T08:56:22.043Z,78.81
2019-04-29T08:58:49.411Z,77.87
2019-04-29T09:01:17.290Z,77.37
2019-04-29T09:03:44.128Z,78.92
2019-04-29T09:06:11.142Z,76.52
2019-04-29T09:08:37.933Z,76.35
2019-04-29T09:11:08.056Z,76.05
2019-04-29T09:13:33.179Z,75.77
2019-04-29T09:15:59.997Z,74.99
2019-04-29T09:18:26.922Z,73.47
2019-04-29T09:20:53.478Z,71.65
2019-04-29T09:23:23.805Z,70.56
2019-04-29T09:26:28.350Z,70.24
2019-04-29T09:28:55.098Z,68.96
2019-04-29T09:31:21.879Z,67.82
2019-04-29T09:33:51.021Z,67.96
2019-04-29T09:36:17.680Z,69.31
2019-04-29T09:38:44.565Z,68.53
2019-04-29T09:41:34.996Z,69.87
2019-04-29T09:44:13.946Z,71.26
2019-04-29T09:46:40.590Z,66.38
2019-04-29T09:49:08.696Z,67.64
2019-04-29T09:51:35.559Z,68.92
2019-04-29T09:54:02.310Z,66.40
2019-04-29T09:56:29.058Z,69.23
2019-04-29T09:59:15.260Z,63.65
2019-04-29T10:01:50.393Z,67.39
2019-04-29T10:04:55.783Z,69.04
2019-04-29T10:07:12.987Z,67.75
2019-04-29T10:09:39.687Z,68.81
2019-04-29T10:12:06.639Z,67.64
2019-04-29T10:14:33.430Z,68.50
2019-04-29T10:17:19.800Z,67.46
2019-04-29T10:19:58.461Z,68.84
2019-04-29T10:22:25.580Z,68.44
2019-04-29T10:24:52.302Z,67.43
2019-04-29T10:27:19.072Z,68.00
2019-04-29T10:29:50.707Z,69.46
2019-04-29T10:32:17.994Z,69.31
2019-04-29T10:34:44.862Z,71.35
2019-04-29T10:37:11.568Z,68.02
2019-04-29T10:40:10.563Z,66.86
2019-04-29T10:42:34.834Z,68.32
2019-04-29T10:45:23.845Z,69.58
2019-04-29T10:48:03.360Z,69.73
2019-04-29T10:50:31.962Z,70.67
2019-04-29T10:52:59.068Z,67.68
2019-04-29T10:55:29.979Z,65.32
2019-04-29T10:57:55.027Z,66.72
2019-04-29T11:00:44.720Z,67.10
2019-04-29T11:03:11.588Z,70.58
2019-04-29T11:06:00.268Z,66.14
2019-04-29T11:08:38.262Z,68.30
2019-04-29T11:11:07.520Z,70.79
2019-04-29T11:13:34.369Z,69.52
2019-04-29T11:16:01.189Z,70.54
2019-04-29T11:18:28.036Z,72.10
2019-04-29T11:20:55.509Z,72.77
2019-04-29T11:23:30.562Z,73.85
2019-04-29T11:26:09.658Z,73.48
2019-04-29T11:28:40.659Z,74.47
2019-04-29T11:31:09.709Z,75.96
2019-04-29T11:33:55.996Z,76.21
2019-04-29T11:36:24.134Z,76.97
2019-04-29T11:38:50.817Z,76.61
2019-04-29T11:41:19.766Z,76.88
2019-04-29T11:43:46.717Z,77.46
2019-04-29T11:46:15.748Z,78.20
2019-04-29T11:48:42.712Z,77.83
2019-04-29T11:51:19.927Z,78.36
2019-04-29T11:53:46.632Z,78.52
2019-04-29T11:56:14.070Z,78.61
2019-04-29T11:58:57.321Z,78.93
2019-04-29T12:01:41.152Z,79.60
2019-04-29T12:04:13.312Z,80.20
2019-04-29T12:06:40.113Z,80.13
2019-04-29T12:09:07.727Z,80.12
2019-04-29T12:11:36.293Z,80.59
2019-04-29T12:14:11.286Z,79.22
2019-04-29T12:16:47.858Z,79.77
2019-04-29T12:19:26.785Z,80.34
2019-04-29T12:21:53.535Z,80.43
2019-04-29T12:24:20.482Z,79.27
2019-04-29T12:26:47.274Z,79.46
2019-04-29T12:29:18.126Z,79.28
2019-04-29T12:32:14.600Z,78.02
2019-04-29T12:35:09.919Z,77.42
2019-04-29T12:37:54.760Z,77.95
2019-04-29T12:40:40.251Z,79.09
2019-04-29T12:43:25.400Z,78.98
2019-04-29T12:46:11.842Z,80.05
2019-04-29T12:48:39.231Z,80.10
2019-04-29T12:51:06.009Z,80.06
2019-04-29T12:53:32.730Z,79.72
2019-04-29T12:55:59.699Z,79.98
2019-04-29T12:58:26.455Z,80.64
2019-04-29T13:00:59.923Z,81.10
2019-04-29T13:03:38.925Z,80.79
2019-04-29T13:06:04.656Z,81.40
2019-04-29T13:08:44.269Z,81.79
2019-04-29T13:11:14.795Z,81.82
2019-04-29T13:13:40.230Z,81.74
2019-04-29T13:16:20.182Z,80.67
2019-04-29T13:19:12.532Z,80.25
2019-04-29T13:21:34.707Z,79.70
2019-04-29T13:24:13.582Z,80.09
2019-04-29T13:26:33.316Z,80.05
2019-04-29T13:29:01.781Z,80.62
2019-04-29T13:31:38.175Z,80.65
2019-04-29T13:34:09.006Z,80.57
2019-04-29T13:36:28.454Z,80.51
2019-04-29T13:38:55.691Z,80.84
2019-04-29T13:41:24.433Z,80.37
2019-04-29T13:43:53.632Z,80.47
2019-04-29T13:46:46.189Z,80.44
2019-04-29T13:49:18.288Z,80.43
2019-04-29T13:51:45.280Z,79.31
2019-04-29T13:54:12.158Z,78.75
2019-04-29T13:56:54.788Z,78.71
2019-04-29T13:59:12.297Z,78.92
2019-04-29T14:01:59.972Z,77.71
2019-04-29T14:04:25.125Z,78.09
2019-04-29T14:06:56.634Z,79.24
2019-04-29T14:09:18.408Z,79.67
2019-04-29T14:11:45.921Z,80.29
2019-04-29T14:14:12.607Z,79.62
2019-04-29T14:16:43.189Z,79.37
2019-04-29T14:19:08.717Z,80.15
2019-04-29T14:21:36.343Z,80.96
2019-04-29T14:24:03.116Z,81.35
2019-04-29T14:26:29.817Z,80.18
2019-04-29T14:28:56.855Z,80.50
2019-04-29T14:31:24.532Z,81.39
2019-04-29T14:34:02.848Z,81.50
2019-04-29T14:36:29.687Z,80.22
2019-04-29T14:38:56.562Z,81.39
2019-04-29T14:41:23.636Z,82.01
2019-04-29T14:44:30.264Z,82.58
2019-04-29T14:47:17.961Z,82.73
2019-04-29T14:49:48.295Z,83.18
2019-04-29T14:52:15.498Z,83.44
2019-04-29T14:54:43.582Z,83.51
2019-04-29T14:57:10.366Z,83.53
2019-04-29T14:59:37.704Z,83.43
2019-04-29T15:02:16.416Z,83.45
2019-04-29T15:04:40.653Z,83.78
2019-04-29T15:07:07.485Z,84.07
2019-04-29T15:09:46.563Z,84.25
2019-04-29T15:12:23.590Z,84.38
2019-04-29T15:15:19.371Z,84.73
2019-04-29T15:18:16.029Z,84.76
2019-04-29T15:20:42.466Z,85.12
2019-04-29T15:23:09.040Z,85.13
2019-04-29T15:25:35.955Z,85.10
2019-04-29T15:28:02.838Z,85.14
2019-04-29T15:30:36.706Z,85.33
2019-04-29T15:33:01.329Z,85.32
2019-04-29T15:35:27.986Z,85.10
2019-04-29T15:37:54.747Z,84.57
2019-04-29T15:40:26.117Z,84.89
2019-04-29T15:42:53.176Z,85.30
2019-04-29T15:45:19.759Z,85.16
2019-04-29T15:47:47.193Z,85.48
2019-04-29T15:50:18.642Z,85.55
2019-04-29T15:52:42.870Z,85.54
2019-04-29T15:55:09.649Z,85.57
2019-04-29T15:57:37.026Z,85.41
2019-04-29T16:00:20.739Z,84.89
2019-04-29T16:02:35.929Z,85.26
2019-04-29T16:05:14.850Z,85.42
2019-04-29T16:07:59.258Z,85.48
2019-04-29T16:10:41.419Z,85.71
2019-04-29T16:13:09.265Z,85.86
2019-04-29T16:15:36.310Z,85.81
2019-04-29T16:18:05.407Z,85.87
2019-04-29T16:20:34.485Z,85.64
2019-04-29T16:23:02.220Z,85.51
2019-04-29T16:25:29.094Z,85.55
2019-04-29T16:27:55.955Z,85.28
2019-04-29T16:30:25.973Z,84.85
2019-04-29T16:32:51.787Z,83.88
2019-04-29T16:37:47.818Z,84.56
2019-04-29T16:40:14.910Z,85.00
2019-04-29T16:43:01.235Z,85.24
2019-04-29T16:45:51.363Z,85.24
2019-04-29T16:48:12.940Z,84.76
2019-04-29T16:50:39.605Z,85.02
2019-04-29T16:53:06.391Z,84.26
2019-04-29T16:55:35.993Z,84.55
2019-04-29T16:58:06.581Z,84.38
2019-04-29T17:00:33.070Z,84.77
2019-04-29T17:02:59.900Z,85.27
2019-04-29T17:05:27.073Z,85.50
2019-04-29T17:07:54.244Z,85.89
2019-04-29T17:10:37.390Z,86.06
2019-04-29T17:13:09.149Z,85.94
2019-04-29T17:15:34.448Z,86.01
2019-04-29T17:18:01.296Z,85.90
2019-04-29T17:20:28.254Z,85.71
2019-04-29T17:22:57.495Z,85.84
2019-04-29T17:25:24.366Z,86.04
2019-04-29T17:28:29.147Z,85.93
2019-04-29T17:31:26.686Z,85.69
2019-04-29T17:34:00.091Z,85.84
2019-04-29T17:35:15.776Z,84.69
2019-04-29T17:36:27.565Z,86.13
2019-04-29T17:38:54.256Z,86.14
2019-04-29T17:41:21.138Z,85.52
2019-04-29T17:44:09.773Z,85.58
2019-04-29T17:46:55.347Z,85.89
2019-04-29T17:49:30.658Z,85.88
2019-04-29T17:52:02.593Z,86.43
2019-04-29T17:54:31.969Z,86.44
2019-04-29T17:57:25.144Z,86.62
2019-04-29T17:59:52.361Z,86.73
2019-04-29T18:02:37.231Z,86.87
2019-04-29T18:05:20.298Z,87.08
2019-04-29T18:07:53.155Z,86.98
2019-04-29T18:10:38.639Z,86.47
2019-04-29T18:13:06.045Z,86.62
2019-04-29T18:15:51.680Z,86.77
2019-04-29T18:18:08.773Z,86.89
2019-04-29T18:20:42.668Z,86.33
2019-04-29T18:23:27.875Z,85.94
2019-04-29T18:25:58.971Z,85.70
2019-04-29T18:28:26.184Z,85.46
2019-04-29T18:30:56.063Z,85.71
2019-04-29T18:33:23.367Z,85.52
2019-04-29T18:36:01.249Z,85.83
2019-04-29T18:38:20.603Z,85.47
2019-04-29T18:40:49.504Z,85.47
2019-04-29T18:43:19.178Z,85.67
2019-04-29T18:45:55.856Z,85.28
2019-04-29T18:48:21.471Z,85.17
2019-04-29T18:50:46.895Z,85.45
2019-04-29T18:53:15.472Z,85.86
2019-04-29T18:55:42.399Z,86.07
2019-04-29T18:58:09.134Z,86.43
2019-04-29T19:00:35.948Z,86.69
2019-04-29T19:03:03.224Z,86.82
2019-04-29T19:05:35.637Z,86.95
2019-04-29T19:08:12.174Z,86.75
2019-04-29T19:10:34.528Z,86.85
2019-04-29T19:13:05.383Z,86.94
2019-04-29T19:15:35.434Z,86.95
2019-04-29T19:18:05.411Z,87.11
2019-04-29T19:20:31.297Z,87.32
2019-04-29T19:23:05.868Z,87.36
2019-04-29T19:25:29.805Z,87.00
2019-04-29T19:27:58.723Z,87.07
2019-04-29T19:30:29.011Z,87.44
2019-04-29T19:33:00.275Z,87.45
2019-04-29T19:35:25.216Z,87.63
2019-04-29T19:37:52.448Z,87.71
2019-04-29T19:40:19.253Z,87.81
2019-04-29T19:42:47.950Z,87.98
2019-04-29T19:45:17.259Z,88.06
2019-04-29T19:47:47.066Z,88.07
2019-04-29T19:50:16.666Z,88.34
2019-04-29T19:52:41.282Z,88.29
2019-04-29T19:55:08.146Z,88.40
2019-04-29T19:57:37.977Z,88.28
2019-04-29T20:00:06.769Z,88.38
2019-04-29T20:02:35.474Z,88.51
2019-04-29T20:05:31.679Z,88.61
2019-04-29T20:07:56.545Z,88.59
2019-04-29T20:10:23.610Z,88.67
2019-04-29T20:12:53.367Z,88.76
2019-04-29T20:15:20.622Z,88.83
2019-04-29T20:18:12.822Z,88.85
2019-04-29T20:21:09.028Z,88.99
2019-04-29T20:23:37.006Z,89.07
2019-04-29T20:26:13.971Z,89.19
2019-04-29T20:28:30.354Z,89.23
2019-04-29T20:31:14.992Z,89.27
2019-04-29T20:33:26.176Z,89.29
2019-04-29T20:35:53.239Z,89.37
2019-04-29T20:38:20.378Z,89.44
2019-04-29T20:40:47.732Z,89.45
2019-04-29T20:43:16.027Z,89.49
2019-04-29T20:45:45.314Z,89.47
2019-04-29T20:48:16.175Z,89.51
2019-04-29T20:50:41.305Z,89.60
2019-04-29T20:53:22.002Z,89.62
2019-04-29T20:55:48.971Z,89.45
2019-04-29T20:58:16.013Z,89.59
2019-04-29T21:00:45.038Z,89.64
2019-04-29T21:03:12.059Z,89.69
2019-04-29T21:05:47.394Z,89.70
2019-04-29T21:08:14.259Z,89.83
2019-04-29T21:10:38.024Z,89.83
2019-04-29T21:13:25.752Z,89.86
2019-04-29T21:15:59.564Z,89.90
2019-04-29T21:18:27.069Z,89.93
2019-04-29T21:20:55.135Z,89.96
2019-04-29T21:23:23.742Z,89.83
2019-04-29T21:25:50.606Z,89.78
2019-04-29T21:28:17.691Z,89.74
2019-04-29T21:30:45.219Z,89.68
2019-04-29T21:33:17.871Z,89.46
2019-04-29T21:35:58.029Z,89.28
2019-04-29T21:38:55.729Z,89.18
2019-04-29T21:41:27.466Z,89.07
2019-04-29T21:43:55.268Z,89.03
2019-04-29T21:46:25.797Z,88.85
2019-04-29T21:48:50.983Z,88.79
2019-04-29T21:51:17.719Z,88.89
2019-04-29T21:53:45.919Z,88.73
2019-04-29T21:56:13.079Z,88.86
2019-04-29T21:58:39.744Z,89.05
2019-04-29T22:01:07.615Z,89.16
2019-04-29T22:03:34.752Z,89.05
2019-04-29T22:06:01.427Z,89.10
2019-04-29T22:08:30.063Z,89.01
2019-04-29T22:10:58.313Z,89.02
2019-04-29T22:13:25.801Z,89.08
2019-04-29T22:15:52.523Z,89.06
2019-04-29T22:18:19.327Z,89.17
2019-04-29T22:20:46.017Z,89.29
2019-04-29T22:23:14.620Z,89.49
2019-04-29T22:25:45.660Z,89.51
2019-04-29T22:28:10.751Z,89.47
2019-04-29T22:30:38.804Z,89.42
2019-04-29T22:33:08.412Z,89.49
2019-04-29T22:35:37.286Z,89.53
2019-04-29T22:38:07.726Z,89.56
2019-04-29T22:40:34.100Z,89.61
2019-04-29T22:43:16.778Z,89.69
2019-04-29T22:45:43.990Z,89.76
2019-04-29T22:48:16.892Z,89.85
2019-04-29T22:50:39.585Z,89.93
2019-04-29T22:53:08.849Z,89.95
2019-04-29T22:55:38.717Z,89.92
2019-04-29T22:58:07.930Z,90.08
2019-04-29T23:00:33.896Z,90.09
2019-04-29T23:03:02.254Z,90.14
2019-04-29T23:05:29.972Z,90.33
2019-04-29T23:08:00.078Z,90.42
2019-04-29T23:10:27.843Z,90.45
2019-04-29T23:12:57.336Z,90.42
2019-04-29T23:15:24.186Z,90.42
2019-04-29T23:17:51.427Z,90.43
2019-04-29T23:20:36.545Z,90.54
2019-04-29T23:23:08.673Z,90.58
2019-04-29T23:25:40.027Z,90.58
2019-04-29T23:28:06.620Z,90.56
2019-04-29T23:30:33.585Z,90.60
2019-04-29T23:33:00.394Z,90.65
2019-04-29T23:35:27.165Z,90.64
2019-04-29T23:37:58.845Z,90.67
2019-04-29T23:40:22.378Z,90.78
2019-04-29T23:42:49.325Z,90.84
2019-04-29T23:45:21.161Z,90.96
2019-04-29T23:47:46.882Z,90.89
2019-04-29T23:50:18.757Z,90.87
2019-04-29T23:52:43.021Z,90.89
2019-04-29T23:55:09.829Z,90.90
2019-04-29T23:57:55.551Z,90.93
